Time;durP1;ratioP1;P1;durP2;ratioP2;P2;SDS_P1;SDS_P2;PMS_P1;PMS_P2;Temp;Humidity;BMP_temperature;BMP_pressure;BME280_temperature;BME280_humidity;BME280_pressure;Samples;Min_cycle;Max_cycle;Signal;HPM_P1;HPM_P2
2021/09/19 00:01:08;;;;;;;12.50;2.83;;;;;;;;;;5056744;28;20459;-90
2021/09/19 00:03:37;;;;;;;13.03;2.87;;;;;;;;;;5060058;28;20445;-90
2021/09/19 00:06:04;;;;;;;13.00;3.10;;;;;;;;;;5059057;28;20453;-89
2021/09/19 00:08:31;;;;;;;12.80;2.93;;;;;;;;;;5054714;28;20456;-90
2021/09/19 00:10:58;;;;;;;12.60;3.00;;;;;;;;;;5054202;28;20459;-89
2021/09/19 00:13:26;;;;;;;12.00;3.00;;;;;;;;;;5054324;28;20479;-90
2021/09/19 00:15:53;;;;;;;12.43;2.63;;;;;;;;;;5054815;28;20458;-89
2021/09/19 00:18:20;;;;;;;12.27;2.93;;;;;;;;;;5065323;28;20452;-91
2021/09/19 00:20:49;;;;;;;12.27;2.60;;;;;;;;;;5065003;28;20537;-90
2021/09/19 00:23:16;;;;;;;13.20;3.03;;;;;;;;;;5054569;28;20838;-90
2021/09/19 00:25:43;;;;;;;11.80;2.40;;;;;;;;;;5054857;28;20500;-90
2021/09/19 00:28:10;;;;;;;12.90;3.10;;;;;;;;;;5054276;28;20495;-90
2021/09/19 00:30:37;;;;;;;13.97;3.03;;;;;;;;;;5049698;28;20479;-90
2021/09/19 00:33:04;;;;;;;12.30;3.00;;;;;;;;;;5053939;28;20461;-89
2021/09/19 00:35:32;;;;;;;12.30;2.50;;;;;;;;;;5051387;28;21028;-89
2021/09/19 00:38:01;;;;;;;13.03;3.50;;;;;;;;;;5053264;28;20456;-89
2021/09/19 00:40:28;;;;;;;13.37;3.50;;;;;;;;;;5053903;28;20531;-91
2021/09/19 00:42:55;;;;;;;12.93;3.17;;;;;;;;;;5039040;28;20498;-90
2021/09/19 00:45:23;;;;;;;12.57;3.30;;;;;;;;;;5054551;28;20491;-90
2021/09/19 00:47:51;;;;;;;13.60;3.77;;;;;;;;;;5062008;28;20485;-89
2021/09/19 00:50:20;;;;;;;13.00;3.57;;;;;;;;;;5064275;28;20512;-89
2021/09/19 00:52:47;;;;;;;13.00;2.93;;;;;;;;;;5052955;28;20565;-89
2021/09/19 00:55:17;;;;;;;12.73;3.37;;;;;;;;;;5053511;28;20444;-89
2021/09/19 00:57:45;;;;;;;14.23;2.93;;;;;;;;;;5053029;28;20463;-88
2021/09/19 01:00:14;;;;;;;11.80;2.60;;;;;;;;;;5053720;28;20451;-86
2021/09/19 01:02:42;;;;;;;12.57;3.53;;;;;;;;;;5051198;28;20476;-88
2021/09/19 01:05:10;;;;;;;12.57;3.00;;;;;;;;;;5053177;28;20479;-88
2021/09/19 01:07:37;;;;;;;13.50;3.50;;;;;;;;;;5052474;28;20465;-88
2021/09/19 01:10:04;;;;;;;14.33;3.90;;;;;;;;;;5053536;28;20459;-88
2021/09/19 01:12:33;;;;;;;11.93;2.80;;;;;;;;;;5039212;28;20862;-84
2021/09/19 01:15:01;;;;;;;12.93;3.40;;;;;;;;;;5033415;28;20445;-85
2021/09/19 01:17:29;;;;;;;13.10;3.63;;;;;;;;;;5035323;28;20448;-84
2021/09/19 01:19:58;;;;;;;13.40;3.10;;;;;;;;;;5048332;28;20836;-85
2021/09/19 01:22:31;;;;;;;12.57;4.00;;;;;;;;;;5063041;28;20481;-85
2021/09/19 01:24:59;;;;;;;14.80;3.13;;;;;;;;;;5054113;28;20879;-86
2021/09/19 01:27:26;;;;;;;12.97;3.70;;;;;;;;;;5067212;28;20453;-86
2021/09/19 01:29:54;;;;;;;13.03;3.13;;;;;;;;;;5072774;28;20455;-86
2021/09/19 01:32:22;;;;;;;12.27;3.07;;;;;;;;;;5044473;28;20483;-87
2021/09/19 01:34:50;;;;;;;12.77;3.73;;;;;;;;;;5033091;28;20450;-86
2021/09/19 01:37:17;;;;;;;15.57;4.00;;;;;;;;;;5032168;28;20526;-87
2021/09/19 01:39:44;;;;;;;12.83;3.80;;;;;;;;;;5032786;28;20541;-86
2021/09/19 01:42:13;;;;;;;13.37;3.60;;;;;;;;;;5044538;28;20480;-86
2021/09/19 01:44:41;;;;;;;13.17;3.97;;;;;;;;;;5052693;28;21008;-86
2021/09/19 01:47:08;;;;;;;12.83;3.20;;;;;;;;;;5051511;28;20464;-86
2021/09/19 01:49:35;;;;;;;18.10;3.80;;;;;;;;;;5052159;28;20451;-87
2021/09/19 01:52:02;;;;;;;13.67;4.00;;;;;;;;;;5051415;28;20485;-85
2021/09/19 01:54:29;;;;;;;13.23;3.77;;;;;;;;;;5058860;28;20938;-87
2021/09/19 01:56:56;;;;;;;12.97;3.53;;;;;;;;;;5059716;28;20439;-86
2021/09/19 01:59:25;;;;;;;13.20;3.83;;;;;;;;;;5058058;28;20452;-87
2021/09/19 02:01:52;;;;;;;15.30;3.90;;;;;;;;;;5044488;28;20472;-85
2021/09/19 02:04:19;;;;;;;14.00;3.70;;;;;;;;;;5032014;28;20467;-86
2021/09/19 02:06:46;;;;;;;13.40;3.83;;;;;;;;;;5031878;28;20474;-86
2021/09/19 02:09:13;;;;;;;13.03;3.30;;;;;;;;;;5032053;28;20451;-87
2021/09/19 02:11:40;;;;;;;13.40;4.00;;;;;;;;;;5038997;28;20482;-85
2021/09/19 02:14:08;;;;;;;13.50;4.20;;;;;;;;;;5051904;28;20458;-86
2021/09/19 02:16:36;;;;;;;14.13;4.27;;;;;;;;;;5051492;28;20535;-86
2021/09/19 02:19:03;;;;;;;13.30;3.73;;;;;;;;;;5051610;28;20482;-86
2021/09/19 02:21:30;;;;;;;13.57;3.97;;;;;;;;;;5052507;28;20491;-87
2021/09/19 02:23:57;;;;;;;13.57;4.30;;;;;;;;;;5053994;28;20463;-86
2021/09/19 02:26:24;;;;;;;15.80;3.83;;;;;;;;;;5056506;28;20957;-87
2021/09/19 02:28:51;;;;;;;13.67;3.47;;;;;;;;;;5060595;28;20443;-86
2021/09/19 02:31:19;;;;;;;13.10;3.83;;;;;;;;;;5051136;28;20485;-87
2021/09/19 02:33:47;;;;;;;15.80;5.00;;;;;;;;;;5035758;28;20449;-86
2021/09/19 02:36:14;;;;;;;13.73;3.80;;;;;;;;;;5033945;28;20440;-87
2021/09/19 02:38:41;;;;;;;14.30;4.77;;;;;;;;;;5036638;28;20451;-86
2021/09/19 02:41:08;;;;;;;15.57;4.77;;;;;;;;;;5038937;28;20458;-87
2021/09/19 02:43:35;;;;;;;16.00;4.80;;;;;;;;;;5057215;28;20990;-86
2021/09/19 02:46:02;;;;;;;13.80;4.60;;;;;;;;;;5063094;28;20483;-88
2021/09/19 02:48:30;;;;;;;14.43;4.93;;;;;;;;;;5070049;28;20441;-86
2021/09/19 02:50:59;;;;;;;15.60;5.27;;;;;;;;;;5051036;28;20447;-86
2021/09/19 02:53:26;;;;;;;15.10;4.90;;;;;;;;;;5031381;28;20569;-86
2021/09/19 02:55:54;;;;;;;16.40;5.30;;;;;;;;;;5031759;28;20452;-86
2021/09/19 02:58:21;;;;;;;15.83;5.50;;;;;;;;;;5031237;28;20464;-86
2021/09/19 03:00:48;;;;;;;15.73;5.90;;;;;;;;;;5031723;28;20456;-87
2021/09/19 03:03:15;;;;;;;14.80;5.90;;;;;;;;;;5049839;28;20553;-86
2021/09/19 03:05:43;;;;;;;15.50;5.70;;;;;;;;;;5051702;28;20482;-86
2021/09/19 03:08:11;;;;;;;15.00;5.73;;;;;;;;;;5050802;28;20460;-86
2021/09/19 03:10:38;;;;;;;16.37;5.70;;;;;;;;;;5051738;28;20456;-84
2021/09/19 03:13:05;;;;;;;14.90;5.37;;;;;;;;;;5034681;28;20487;-86
2021/09/19 03:15:32;;;;;;;15.50;5.80;;;;;;;;;;5051507;28;20446;-86
2021/09/19 03:18:00;;;;;;;16.47;6.10;;;;;;;;;;5050933;28;20451;-86
2021/09/19 03:20:27;;;;;;;14.90;5.80;;;;;;;;;;5051122;28;20461;-85
2021/09/19 03:22:54;;;;;;;16.53;5.43;;;;;;;;;;5035014;28;20496;-86
2021/09/19 03:25:23;;;;;;;17.80;5.70;;;;;;;;;;5031176;28;20487;-88
2021/09/19 03:27:50;;;;;;;16.27;4.93;;;;;;;;;;5030488;28;20459;-87
2021/09/19 03:30:17;;;;;;;16.20;5.10;;;;;;;;;;5037951;28;20454;-87
2021/09/19 03:32:45;;;;;;;16.17;5.90;;;;;;;;;;5051884;28;20451;-91
2021/09/19 03:35:13;;;;;;;16.07;5.30;;;;;;;;;;5077665;28;20455;-86
2021/09/19 03:37:40;;;;;;;16.70;5.60;;;;;;;;;;5054821;28;20543;-86
2021/09/19 03:40:09;;;;;;;15.20;5.37;;;;;;;;;;5043543;28;20452;-86
2021/09/19 03:42:37;;;;;;;15.80;5.97;;;;;;;;;;5046504;28;20478;-86
2021/09/19 03:45:05;;;;;;;18.27;6.43;;;;;;;;;;5075441;28;21068;-86
2021/09/19 03:47:33;;;;;;;16.70;5.30;;;;;;;;;;5075505;28;20452;-87
2021/09/19 03:50:00;;;;;;;16.33;5.13;;;;;;;;;;5075455;28;20455;-87
2021/09/19 03:52:27;;;;;;;15.50;5.40;;;;;;;;;;5051824;28;20472;-86
2021/09/19 03:54:55;;;;;;;15.63;5.53;;;13.80;99.90;;;;;;5036739;28;20812;-87
2021/09/19 03:57:22;;;;;;;15.40;5.00;;;13.50;99.90;;;;;;5035165;28;20454;-86
2021/09/19 03:59:50;;;;;;;18.60;5.40;;;13.40;99.90;;;;;;5035332;28;20486;-89
2021/09/19 04:02:17;;;;;;;15.50;5.73;;;13.40;99.90;;;;;;5045920;28;20473;-88
2021/09/19 04:04:43;;;;;;;15.00;4.70;;;13.40;99.90;;;;;;5056534;28;20451;-87
2021/09/19 04:07:10;;;;;;;15.67;4.93;;;13.30;99.90;;;;;;5055282;28;20445;-87
2021/09/19 04:09:37;;;;;;;18.20;6.80;;;13.30;99.90;;;;;;5054468;28;20455;-87
2021/09/19 04:12:04;;;;;;;16.13;5.00;;;13.30;99.90;;;;;;5053266;28;20578;-86
2021/09/19 04:14:31;;;;;;;14.17;4.50;;;13.30;99.90;;;;;;5054937;28;20975;-86
2021/09/19 04:17:00;;;;;;;16.03;5.80;;;13.30;99.90;;;;;;5054744;28;20460;-86
2021/09/19 04:19:27;;;;;;;14.70;5.30;;;13.30;99.90;;;;;;5054867;28;20454;-87
2021/09/19 04:21:53;;;;;;;15.87;5.27;;;13.30;99.90;;;;;;5048506;28;20990;-88
2021/09/19 04:24:20;;;;;;;16.70;5.30;;;13.30;99.90;;;;;;5035072;28;20452;-86
2021/09/19 04:26:47;;;;;;;15.57;4.83;;;13.40;99.90;;;;;;5034501;28;20495;-86
2021/09/19 04:29:14;;;;;;;16.40;5.40;;;13.30;99.90;;;;;;5035519;28;20463;-88
2021/09/19 04:31:40;;;;;;;15.57;5.30;;;13.30;99.90;;;;;;5040863;28;20475;-86
2021/09/19 04:34:08;;;;;;;16.90;5.77;;;13.30;99.90;;;;;;5057358;28;20841;-86
2021/09/19 04:36:35;;;;;;;17.67;5.60;;;13.30;99.90;;;;;;5057168;28;20456;-84
2021/09/19 04:39:02;;;;;;;17.60;7.03;;;13.30;99.90;;;;;;5059201;28;20453;-85
2021/09/19 04:41:29;;;;;;;15.37;5.50;;;13.30;99.90;;;;;;5054599;28;20466;-85
2021/09/19 04:43:56;;;;;;;17.33;6.17;;;13.30;99.90;;;;;;5046604;28;20473;-86
2021/09/19 04:46:23;;;;;;;17.30;6.70;;;13.30;99.90;;;;;;5050643;28;20483;-86
2021/09/19 04:48:54;;;;;;;16.40;6.00;;;13.30;99.90;;;;;;5034272;28;20461;-87
2021/09/19 04:51:22;;;;;;;17.60;7.10;;;13.30;99.90;;;;;;5034204;28;20506;-87
2021/09/19 04:53:49;;;;;;;16.33;6.40;;;13.30;99.90;;;;;;5053433;28;20458;-88
2021/09/19 04:56:16;;;;;;;20.50;6.13;;;13.30;99.90;;;;;;5054647;28;20444;-87
2021/09/19 04:58:43;;;;;;;17.23;6.57;;;13.20;99.90;;;;;;5053757;28;20448;-86
2021/09/19 05:01:09;;;;;;;17.30;6.23;;;13.20;99.90;;;;;;5054429;28;20465;-87
2021/09/19 05:03:36;;;;;;;16.57;6.93;;;13.20;99.90;;;;;;5036039;28;20453;-86
2021/09/19 05:06:03;;;;;;;18.33;6.70;;;13.20;99.90;;;;;;5035297;28;20487;-86
2021/09/19 05:08:31;;;;;;;16.60;6.47;;;13.30;99.90;;;;;;5033614;28;20453;-86
2021/09/19 05:10:58;;;;;;;16.10;6.20;;;13.20;99.90;;;;;;5034216;28;20527;-87
2021/09/19 05:13:25;;;;;;;15.87;5.57;;;13.20;99.90;;;;;;5049575;28;20505;-86
2021/09/19 05:15:52;;;;;;;17.40;7.13;;;13.20;99.90;;;;;;5054574;28;20457;-87
2021/09/19 05:18:19;;;;;;;18.03;7.57;;;13.20;99.90;;;;;;5053880;28;20446;-85
2021/09/19 05:20:46;;;;;;;17.40;6.97;;;13.20;99.90;;;;;;5054703;28;20453;-85
2021/09/19 05:23:12;;;;;;;17.23;6.77;;;13.20;99.90;;;;;;5039789;28;20476;-85
2021/09/19 05:25:41;;;;;;;19.30;7.10;;;13.10;99.90;;;;;;5034388;28;20485;-85
2021/09/19 05:28:08;;;;;;;17.50;7.40;;;13.10;99.90;;;;;;5033736;28;20491;-85
2021/09/19 05:30:35;;;;;;;19.30;6.90;;;13.10;99.90;;;;;;5033939;28;20562;-85
2021/09/19 05:33:01;;;;;;;17.80;6.77;;;13.10;99.90;;;;;;5045399;28;21009;-85
2021/09/19 05:35:28;;;;;;;18.47;7.43;;;13.10;99.90;;;;;;5053495;28;20841;-85
2021/09/19 05:37:55;;;;;;;17.23;6.70;;;13.10;99.90;;;;;;5051673;28;20822;-85
2021/09/19 05:40:22;;;;;;;18.03;7.83;;;13.10;99.90;;;;;;5057545;28;20968;-85
2021/09/19 05:42:50;;;;;;;17.27;6.93;;;13.10;99.90;;;;;;5056542;28;20483;-87
2021/09/19 05:45:17;;;;;;;17.97;6.50;;;13.00;99.90;;;;;;5058043;28;20542;-87
2021/09/19 05:47:45;;;;;;;19.50;6.63;;;13.00;99.90;;;;;;5050951;28;20846;-85
2021/09/19 05:50:12;;;;;;;17.67;6.83;;;13.00;99.90;;;;;;5062159;28;20951;-85
2021/09/19 05:52:39;;;;;;;17.10;6.80;;;13.00;99.90;;;;;;5053837;28;20597;-84
2021/09/19 05:55:07;;;;;;;17.20;7.37;;;13.00;99.90;;;;;;5044852;28;20511;-87
2021/09/19 05:57:58;;;;;;;16.87;6.23;;;13.00;99.90;;;;;;5071573;28;20463;-85
2021/09/19 06:00:33;;;;;;;17.03;6.27;;;13.00;99.90;;;;;;5073759;28;20485;-85
2021/09/19 06:03:00;;;;;;;19.93;7.60;;;13.00;99.90;;;;;;5046080;28;20478;-85
2021/09/19 06:05:27;;;;;;;17.70;7.17;;;13.10;99.90;;;;;;5035946;28;20484;-84
2021/09/19 06:07:54;;;;;;;16.87;7.17;;;13.10;99.90;;;;;;5036193;28;20460;-85
2021/09/19 06:10:21;;;;;;;17.10;6.53;;;13.10;99.90;;;;;;5035664;28;20461;-85
2021/09/19 06:12:48;;;;;;;18.00;7.37;;;13.20;99.90;;;;;;5044327;28;20500;-84
2021/09/19 06:15:14;;;;;;;17.53;7.57;;;13.20;99.90;;;;;;5054474;28;20546;-87
2021/09/19 06:17:42;;;;;;;17.07;7.23;;;13.30;99.90;;;;;;5053369;28;20820;-84
2021/09/19 06:20:10;;;;;;;16.57;6.67;;;13.30;99.90;;;;;;5054505;28;20449;-85
2021/09/19 06:22:37;;;;;;;18.03;8.43;;;13.40;99.90;;;;;;5046184;28;21063;-85
2021/09/19 06:25:05;;;;;;;17.80;7.90;;;13.50;99.90;;;;;;5034724;28;20956;-85
2021/09/19 06:27:32;;;;;;;17.60;7.57;;;13.60;99.90;;;;;;5033405;28;20496;-84
2021/09/19 06:29:59;;;;;;;15.93;7.40;;;13.70;99.90;;;;;;5034165;28;20998;-84
2021/09/19 06:32:25;;;;;;;15.50;7.20;;;13.80;99.90;;;;;;5033745;28;20473;-85
2021/09/19 06:34:54;;;;;;;17.13;7.83;;;13.90;99.90;;;;;;5034673;28;20525;-85
2021/09/19 06:37:20;;;;;;;16.10;6.90;;;14.00;99.90;;;;;;5033134;28;20536;-85
2021/09/19 06:39:47;;;;;;;16.73;7.03;;;14.10;99.90;;;;;;5033562;28;20492;-85
2021/09/19 06:42:14;;;;;;;15.27;6.57;;;14.30;99.90;;;;;;5044894;28;20549;-85
2021/09/19 06:44:41;;;;;;;16.20;6.97;;;14.30;99.90;;;;;;5057466;28;20494;-84
2021/09/19 06:47:08;;;;;;;15.87;6.70;;;14.40;99.90;;;;;;5050762;28;20690;-84
2021/09/19 06:49:35;;;;;;;17.17;7.60;;;14.50;99.90;;;;;;5071259;28;20546;-86
2021/09/19 06:52:03;;;;;;;19.57;6.43;;;14.60;99.90;;;;;;5063628;28;20479;-85
2021/09/19 06:54:30;;;;;;;14.90;5.90;;;14.70;99.90;;;;;;5044373;28;20489;-85
2021/09/19 06:56:57;;;;;;;17.27;5.90;;;14.70;99.90;;;;;;5042749;28;20514;-85
2021/09/19 06:59:24;;;;;;;14.57;5.27;;;14.80;99.90;;;;;;5042922;28;20496;-84
2021/09/19 07:01:50;;;;;;;15.10;6.27;;;14.90;99.90;;;;;;5037493;28;21060;-85
2021/09/19 07:04:17;;;;;;;14.83;5.87;;;15.00;99.90;;;;;;5057721;28;20522;-85
2021/09/19 07:06:45;;;;;;;14.27;5.57;;;15.00;99.90;;;;;;5054067;28;20595;-84
2021/09/19 07:09:13;;;;;;;15.33;5.60;;;15.10;99.90;;;;;;5054516;28;20455;-84
2021/09/19 07:11:40;;;;;;;15.33;5.73;;;15.10;99.90;;;;;;5057569;28;20479;-87
2021/09/19 07:14:07;;;;;;;15.30;5.50;;;15.20;99.90;;;;;;5058800;28;20531;-88
2021/09/19 07:16:34;;;;;;;14.47;5.17;;;15.20;99.90;;;;;;5037905;28;20813;-87
2021/09/19 07:19:01;;;;;;;13.43;5.07;;;15.30;99.90;;;;;;5046536;28;20439;-87
2021/09/19 07:21:28;;;;;;;14.30;5.90;;;15.40;99.90;;;;;;5045030;28;20450;-87
2021/09/19 07:23:54;;;;;;;14.57;4.83;;;15.40;99.90;;;;;;5047410;28;20454;-87
2021/09/19 07:26:23;;;;;;;14.67;5.00;;;15.50;99.90;;;;;;5045841;28;20477;-87
2021/09/19 07:28:50;;;;;;;15.93;4.30;;;15.50;99.90;;;;;;5044548;28;20458;-88
2021/09/19 07:31:17;;;;;;;14.20;4.87;;;15.60;99.90;;;;;;5046022;28;20452;-88
2021/09/19 07:33:45;;;;;;;15.00;4.73;;;15.60;99.90;;;;;;5044489;28;20479;-88
2021/09/19 07:36:13;;;;;;;13.70;4.57;;;15.60;99.90;;;;;;5047295;28;20445;-87
2021/09/19 07:38:41;;;;;;;13.87;4.50;;;15.60;99.90;;;;;;5043828;28;20449;-88
2021/09/19 07:41:08;;;;;;;13.90;4.13;;;15.70;99.90;;;;;;5045605;28;20439;-88
2021/09/19 07:43:36;;;;;;;13.83;4.43;;;15.60;99.90;;;;;;5045778;28;20445;-88
2021/09/19 07:46:04;;;;;;;15.17;4.07;;;15.60;99.90;;;;;;5046824;28;20442;-88
2021/09/19 07:48:31;;;;;;;16.23;4.13;;;15.80;99.90;;;;;;5044884;28;20442;-89
2021/09/19 07:50:58;;;;;;;13.93;4.20;;;15.80;99.90;;;;;;5045691;28;20456;-88
2021/09/19 07:53:25;;;;;;;13.10;3.63;;;15.80;99.90;;;;;;5042649;28;20467;-88
2021/09/19 07:55:52;;;;;;;12.90;3.70;;;15.90;99.90;;;;;;5043092;28;20459;-88
2021/09/19 07:58:19;;;;;;;12.10;3.40;;;16.00;99.90;;;;;;5043101;28;20441;-88
2021/09/19 08:00:47;;;;;;;12.33;4.00;;;16.10;99.90;;;;;;5044971;28;20771;-88
2021/09/19 08:03:14;;;;;;;13.53;3.60;;;16.20;99.90;;;;;;5043995;28;20551;-89
2021/09/19 08:05:41;;;;;;;15.20;3.57;;;16.40;99.90;;;;;;5044300;28;20452;-86
2021/09/19 08:08:08;;;;;;;13.90;3.90;;;16.40;99.90;;;;;;5045171;28;20494;-89
2021/09/19 08:10:35;;;;;;;15.00;3.87;;;16.50;99.90;;;;;;5044101;28;20452;-88
2021/09/19 08:13:01;;;;;;;14.53;3.70;;;16.70;99.90;;;;;;5044297;28;20490;-88
2021/09/19 08:15:28;;;;;;;13.33;3.73;;;16.70;99.90;;;;;;5045142;28;20454;-89
2021/09/19 08:17:57;;;;;;;13.30;3.33;;;16.70;99.90;;;;;;5042331;28;20906;-89
2021/09/19 08:20:23;;;;;;;13.50;3.77;;;16.90;99.90;;;;;;5042990;28;20456;-89
2021/09/19 08:22:50;;;;;;;14.10;3.73;;;17.00;99.90;;;;;;5045283;28;20476;-88
2021/09/19 08:25:18;;;;;;;14.80;4.50;;;17.00;99.90;;;;;;5046707;28;20507;-88
2021/09/19 08:27:45;;;;;;;13.77;3.50;;;17.20;99.90;;;;;;5047395;28;20549;-88
2021/09/19 08:30:14;;;;;;;14.23;3.90;;;17.20;99.90;;;;;;5035749;28;20449;-88
2021/09/19 08:32:45;;;;;;;14.17;4.13;;;17.30;99.90;;;;;;5050136;28;20478;-89
2021/09/19 08:35:15;;;;;;;13.10;4.03;;;17.40;99.90;;;;;;5050253;28;20456;-89
2021/09/19 08:37:42;;;;;;;14.43;4.00;;;17.40;99.90;;;;;;5054205;28;20456;-89
2021/09/19 08:40:11;;;;;;;13.60;4.57;;;17.50;99.90;;;;;;5074230;28;20448;-92
2021/09/19 08:42:39;;;;;;;14.30;4.23;;;17.60;99.90;;;;;;5062233;28;21001;-90
2021/09/19 08:45:07;;;;;;;14.00;4.70;;;17.50;99.90;;;;;;5046799;28;20459;-89
2021/09/19 08:47:36;;;;;;;14.10;4.40;;;17.60;99.90;;;;;;5052441;28;20472;-90
2021/09/19 08:50:04;;;;;;;15.40;3.93;;;17.70;99.90;;;;;;5053454;28;21021;-89
2021/09/19 08:52:32;;;;;;;15.00;5.10;;;17.80;99.90;;;;;;5053685;28;20468;-90
2021/09/19 08:55:00;;;;;;;14.97;3.87;;;17.90;99.90;;;;;;5033475;28;20462;-90
2021/09/19 08:57:27;;;;;;;14.63;4.37;;;17.90;99.90;;;;;;5036471;28;20952;-89
2021/09/19 08:59:55;;;;;;;14.30;4.73;;;18.00;99.90;;;;;;5056353;28;20468;-89
2021/09/19 09:02:22;;;;;;;15.47;5.37;;;18.10;99.90;;;;;;5058521;28;20494;-89
2021/09/19 09:04:56;;;;;;;14.70;3.90;;;18.20;99.90;;;;;;5055593;28;20441;-90
2021/09/19 09:07:25;;;;;;;14.40;4.77;;;18.30;99.90;;;;;;5054365;28;20548;-89
2021/09/19 09:09:55;;;;;;;15.40;5.30;;;18.30;99.90;;;;;;5027846;28;20454;-89
2021/09/19 09:12:23;;;;;;;15.07;4.43;;;18.30;99.90;;;;;;5034275;28;20479;-89
2021/09/19 09:14:53;;;;;;;14.33;4.17;;;18.40;99.90;;;;;;5046032;28;20457;-89
2021/09/19 09:17:21;;;;;;;15.63;4.60;;;18.60;99.90;;;;;;5057521;28;20915;-88
2021/09/19 09:19:52;;;;;;;14.10;4.70;;;18.70;99.90;;;;;;5054166;28;20446;-89
2021/09/19 09:22:22;;;;;;;16.83;5.80;;;18.60;99.90;;;;;;5054558;28;20484;-88
2021/09/19 09:25:09;;;;;;;14.63;4.70;;;18.60;99.90;;;;;;5053864;28;20454;-89
2021/09/19 09:27:42;;;;;;;14.03;4.17;;;18.70;99.90;;;;;;5052484;28;20495;-89
2021/09/19 09:30:14;;;;;;;14.70;4.70;;;18.80;99.90;;;;;;5052336;28;20453;-89
2021/09/19 09:32:58;;;;;;;14.63;4.40;;;18.80;99.90;;;;;;5052859;28;20912;-89
2021/09/19 09:35:32;;;;;;;17.50;4.50;;;18.90;99.90;;;;;;5053231;28;20448;-89
2021/09/19 09:37:59;;;;;;;13.60;4.50;;;18.80;99.90;;;;;;5051657;28;20476;-89
2021/09/19 09:40:30;;;;;;;13.80;4.20;;;19.10;99.90;;;;;;5052542;28;20464;-88
2021/09/19 09:43:09;;;;;;;15.70;5.30;;;19.10;99.90;;;;;;5052083;28;20995;-90
2021/09/19 09:45:37;;;;;;;14.00;4.47;;;19.20;99.90;;;;;;5052089;28;20451;-90
2021/09/19 09:48:05;;;;;;;14.00;4.50;;;19.20;99.90;;;;;;5051436;28;20552;-89
2021/09/19 09:50:32;;;;;;;14.60;4.50;;;19.40;99.90;;;;;;5052413;28;20473;-91
2021/09/19 09:53:13;;;;;;;14.43;4.97;;;19.50;99.90;;;;;;5045858;28;20472;-89
2021/09/19 09:55:44;;;;;;;14.70;4.90;;;19.60;99.90;;;;;;5033076;28;20447;-89
2021/09/19 09:58:12;;;;;;;14.80;4.30;;;19.60;99.90;;;;;;5043166;28;20458;-90
2021/09/19 10:00:42;;;;;;;15.00;5.00;;;19.80;99.90;;;;;;5058048;28;20456;-90
2021/09/19 10:03:31;;;;;;;12.90;4.43;;;19.80;99.90;;;;;;5098517;22;20509;-91
2021/09/19 10:06:01;;;;;;;14.17;4.07;;;19.80;99.90;;;;;;5077074;28;20439;-90
2021/09/19 10:08:36;;;;;;;14.43;4.40;;;19.90;99.90;;;;;;5073532;28;20533;-90
2021/09/19 10:11:13;;;;;;;14.50;4.93;;;20.00;99.90;;;;;;5073914;28;20470;-89
2021/09/19 10:13:46;;;;;;;13.73;4.53;;;19.90;99.90;;;;;;5052690;28;20458;-88
2021/09/19 10:16:20;;;;;;;14.43;4.90;;;20.00;99.90;;;;;;5053580;28;20479;-88
2021/09/19 10:18:56;;;;;;;14.13;4.30;;;20.00;99.90;;;;;;5050960;28;20444;-89
2021/09/19 10:21:31;;;;;;;14.07;5.07;;;20.00;99.90;;;;;;5049587;28;20878;-89
2021/09/19 10:23:59;;;;;;;14.40;5.33;;;20.10;99.90;;;;;;5046793;28;20444;-89
2021/09/19 10:26:27;;;;;;;14.33;4.10;;;20.00;99.90;;;;;;5051193;28;20454;-90
2021/09/19 10:28:54;;;;;;;15.40;5.40;;;20.00;99.90;;;;;;5047558;28;20562;-90
2021/09/19 10:31:24;;;;;;;16.20;5.00;;;19.80;99.90;;;;;;5066882;28;20946;-89
2021/09/19 10:33:56;;;;;;;16.50;4.93;;;19.80;99.90;;;;;;5071737;28;20446;-90
2021/09/19 10:36:35;;;;;;;15.60;5.33;;;19.80;99.90;;;;;;5061551;28;20510;-91
2021/09/19 10:39:20;;;;;;;14.53;5.93;;;20.00;99.90;;;;;;5068916;28;20462;-89
2021/09/19 10:42:34;;;;;;;14.27;4.70;;;20.00;99.90;;;;;;5051938;28;20927;-90
2021/09/19 10:45:08;;;;;;;14.57;4.50;;;20.10;99.90;;;;;;5051983;28;20990;-89
2021/09/19 10:47:43;;;;;;;13.80;4.40;;;20.10;99.90;;;;;;5050935;28;20499;-89
2021/09/19 10:50:22;;;;;;;14.87;5.20;;;20.00;99.90;;;;;;5051675;28;20984;-91
2021/09/19 10:52:51;;;;;;;15.43;4.73;;;20.00;99.90;;;;;;5051063;28;20558;-90
2021/09/19 10:55:37;;;;;;;15.17;5.13;;;20.10;99.90;;;;;;5052051;28;20454;-89
2021/09/19 10:58:13;;;;;;;14.57;4.60;;;20.20;99.90;;;;;;5051300;28;21011;-90
2021/09/19 11:00:43;;;;;;;14.40;5.10;;;20.30;99.90;;;;;;5052043;28;20443;-89
2021/09/19 11:03:15;;;;;;;14.77;4.97;;;20.30;99.90;;;;;;5051301;28;20516;-90
2021/09/19 11:05:45;;;;;;;14.30;4.20;;;20.40;99.90;;;;;;5051354;28;20446;-89
2021/09/19 11:08:40;;;;;;;15.03;4.63;;;20.30;99.90;;;;;;5050200;28;20488;-89
2021/09/19 11:11:26;;;;;;;13.23;4.00;;;20.50;99.90;;;;;;5051498;28;21007;-89
2021/09/19 11:13:56;;;;;;;15.70;4.10;;;20.70;99.90;;;;;;5050533;28;20455;-90
2021/09/19 11:16:35;;;;;;;16.83;4.60;;;20.60;99.90;;;;;;5051151;28;20433;-91
2021/09/19 11:19:04;;;;;;;15.67;4.50;;;20.50;99.90;;;;;;5051117;28;20447;-89
2021/09/19 11:21:37;;;;;;;14.47;3.63;;;20.40;99.90;;;;;;5050478;28;20494;-90
2021/09/19 11:24:08;;;;;;;13.40;4.57;;;20.50;99.90;;;;;;5046079;28;20672;-89
2021/09/19 11:26:38;;;;;;;14.23;4.30;;;20.50;99.90;;;;;;5042307;28;20513;-91
2021/09/19 11:29:09;;;;;;;13.57;3.50;;;20.60;99.90;;;;;;5051072;28;20483;-90
2021/09/19 11:31:37;;;;;;;13.67;3.77;;;20.60;99.90;;;;;;5055600;28;21030;-90
2021/09/19 11:34:06;;;;;;;13.73;3.37;;;20.60;99.90;;;;;;5067111;28;20542;-90
2021/09/19 11:36:33;;;;;;;12.87;3.00;;;20.60;99.90;;;;;;5049581;28;20650;-91
2021/09/19 11:39:00;;;;;;;12.30;3.20;;;20.50;99.90;;;;;;5050738;28;20448;-90
2021/09/19 11:41:27;;;;;;;13.10;2.87;;;20.40;99.90;;;;;;5051035;28;20466;-90
2021/09/19 11:43:56;;;;;;;12.90;2.87;;;20.30;99.90;;;;;;5056126;28;20443;-90
2021/09/19 11:46:26;;;;;;;12.70;2.10;;;20.10;99.90;;;;;;5070485;28;20446;-90
2021/09/19 11:48:54;;;;;;;13.10;1.70;;;19.90;99.90;;;;;;5071285;28;20482;-89
2021/09/19 11:51:22;;;;;;;14.73;1.93;;;19.80;99.90;;;;;;5070491;28;20447;-89
2021/09/19 11:53:51;;;;;;;12.77;1.77;;;19.70;99.90;;;;;;5070770;28;20459;-89
2021/09/19 11:56:19;;;;;;;13.07;2.20;;;19.70;99.90;;;;;;5070684;28;20461;-90
2021/09/19 11:58:51;;;;;;;13.40;2.10;;;19.70;99.90;;;;;;5071165;28;20459;-89
2021/09/19 12:01:22;;;;;;;12.30;1.83;;;19.90;99.90;;;;;;5052649;28;20490;-91
2021/09/19 12:03:51;;;;;;;14.93;1.73;;;19.80;99.90;;;;;;5054786;28;20444;-89
2021/09/19 12:06:18;;;;;;;11.57;1.23;;;19.80;99.90;;;;;;5056772;28;20455;-90
2021/09/19 12:08:45;;;;;;;11.40;1.40;;;19.70;99.90;;;;;;5056545;28;20487;-90
2021/09/19 12:11:12;;;;;;;10.73;1.43;;;19.80;99.90;;;;;;5054665;28;20443;-91
2021/09/19 12:13:46;;;;;;;10.90;1.23;;;19.80;99.90;;;;;;5054355;28;20455;-90
2021/09/19 12:16:19;;;;;;;10.73;1.37;;;19.70;99.90;;;;;;5052642;28;20458;-90
2021/09/19 12:18:47;;;;;;;11.17;1.40;;;19.60;99.90;;;;;;5052259;28;20502;-90
2021/09/19 12:21:18;;;;;;;11.40;1.40;;;19.70;99.90;;;;;;5054736;28;20910;-90
2021/09/19 12:23:47;;;;;;;10.10;1.10;;;19.60;99.90;;;;;;5053678;28;20455;-90
2021/09/19 12:26:18;;;;;;;10.83;1.40;;;19.70;99.90;;;;;;5054078;28;20436;-90
2021/09/19 12:28:45;;;;;;;11.20;1.30;;;19.60;99.90;;;;;;5051872;28;20484;-90
2021/09/19 12:31:14;;;;;;;10.60;1.40;;;19.60;99.90;;;;;;5054453;28;20873;-90
2021/09/19 12:33:51;;;;;;;10.60;1.57;;;19.50;99.90;;;;;;5073374;28;20444;-91
2021/09/19 12:36:21;;;;;;;10.23;1.33;;;19.50;99.90;;;;;;5062516;28;20482;-90
2021/09/19 12:38:48;;;;;;;10.67;1.30;;;19.40;99.90;;;;;;5047978;28;20446;-90
2021/09/19 12:41:16;;;;;;;11.53;1.87;;;19.50;99.90;;;;;;5051560;28;20451;-91
2021/09/19 12:43:44;;;;;;;11.27;1.60;;;19.40;99.90;;;;;;5053466;28;21030;-91
2021/09/19 12:46:13;;;;;;;10.70;1.70;;;19.50;99.90;;;;;;5053054;28;20987;-89
2021/09/19 12:48:41;;;;;;;12.07;1.90;;;19.50;99.90;;;;;;5054039;28;20521;-90
2021/09/19 12:51:10;;;;;;;11.53;2.00;;;19.40;99.90;;;;;;5055314;28;21052;-90
2021/09/19 12:53:40;;;;;;;10.73;1.43;;;19.50;99.90;;;;;;5054329;28;20505;-91
2021/09/19 12:56:07;;;;;;;43.63;5.97;;;19.60;99.90;;;;;;5053085;28;20478;-90
2021/09/19 12:58:34;;;;;;;19.10;2.60;;;19.60;99.90;;;;;;5053648;28;21011;-89
2021/09/19 13:01:01;;;;;;;11.53;2.10;;;19.60;99.90;;;;;;5054327;28;20459;-90
2021/09/19 13:03:28;;;;;;;11.40;2.10;;;19.60;99.90;;;;;;5053363;28;20479;-90
2021/09/19 13:05:56;;;;;;;12.73;2.40;;;19.60;99.90;;;;;;5054195;28;20447;-89
2021/09/19 13:08:24;;;;;;;11.30;1.90;;;19.70;99.90;;;;;;5053174;28;20513;-90
2021/09/19 13:10:53;;;;;;;12.53;2.23;;;19.90;99.90;;;;;;5054647;28;20505;-90
2021/09/19 13:13:21;;;;;;;11.93;2.27;;;20.00;99.90;;;;;;5095518;22;20504;-84
2021/09/19 13:15:49;;;;;;;11.33;2.37;;;20.00;99.90;;;;;;5096329;28;20480;-83